sensor_id;sensor_type;location;lat;lon;timestamp;P1;durP1;ratioP1;P2;durP2;ratioP2
51560;SDS011;37654;51.262;17.058;2023-12-04T00:00:37;89.93;;;62.65;;
51560;SDS011;37654;51.262;17.058;2023-12-04T00:03:02;99.53;;;67.43;;
51560;SDS011;37654;51.262;17.058;2023-12-04T00:05:28;81.55;;;53.20;;
51560;SDS011;37654;51.262;17.058;2023-12-04T00:07:53;72.78;;;39.20;;
51560;SDS011;37654;51.262;17.058;2023-12-04T00:10:18;61.13;;;30.63;;
51560;SDS011;37654;51.262;17.058;2023-12-04T00:12:43;61.40;;;27.52;;
51560;SDS011;37654;51.262;17.058;2023-12-04T00:15:09;67.65;;;29.42;;
51560;SDS011;37654;51.262;17.058;2023-12-04T00:17:34;67.38;;;32.50;;
51560;SDS011;37654;51.262;17.058;2023-12-04T00:20:04;72.72;;;32.83;;
51560;SDS011;37654;51.262;17.058;2023-12-04T00:22:29;72.55;;;32.00;;
51560;SDS011;37654;51.262;17.058;2023-12-04T00:24:55;74.57;;;32.40;;
51560;SDS011;37654;51.262;17.058;2023-12-04T00:27:20;74.30;;;33.92;;
51560;SDS011;37654;51.262;17.058;2023-12-04T00:29:46;80.45;;;37.65;;
51560;SDS011;37654;51.262;17.058;2023-12-04T00:32:11;89.80;;;41.30;;
51560;SDS011;37654;51.262;17.058;2023-12-04T00:34:36;102.10;;;42.47;;
51560;SDS011;37654;51.262;17.058;2023-12-04T00:37:01;114.78;;;46.95;;
51560;SDS011;37654;51.262;17.058;2023-12-04T00:39:27;116.72;;;46.00;;
51560;SDS011;37654;51.262;17.058;2023-12-04T00:41:52;109.82;;;45.72;;
51560;SDS011;37654;51.262;17.058;2023-12-04T00:44:17;90.78;;;36.55;;
51560;SDS011;37654;51.262;17.058;2023-12-04T00:46:42;94.28;;;39.65;;
51560;SDS011;37654;51.262;17.058;2023-12-04T00:49:08;85.15;;;36.38;;
51560;SDS011;37654;51.262;17.058;2023-12-04T00:51:39;95.60;;;38.45;;
51560;SDS011;37654;51.262;17.058;2023-12-04T00:54:04;86.03;;;36.05;;
51560;SDS011;37654;51.262;17.058;2023-12-04T00:56:30;84.18;;;35.40;;
51560;SDS011;37654;51.262;17.058;2023-12-04T00:58:55;70.07;;;32.95;;
51560;SDS011;37654;51.262;17.058;2023-12-04T01:01:20;70.65;;;31.85;;
51560;SDS011;37654;51.262;17.058;2023-12-04T01:03:45;74.78;;;30.92;;
51560;SDS011;37654;51.262;17.058;2023-12-04T01:06:19;62.67;;;28.73;;
51560;SDS011;37654;51.262;17.058;2023-12-04T01:08:45;52.70;;;26.67;;
51560;SDS011;37654;51.262;17.058;2023-12-04T01:11:11;55.10;;;26.33;;
51560;SDS011;37654;51.262;17.058;2023-12-04T01:13:36;63.47;;;27.15;;
51560;SDS011;37654;51.262;17.058;2023-12-04T01:16:01;54.53;;;25.13;;
51560;SDS011;37654;51.262;17.058;2023-12-04T01:18:26;59.67;;;28.08;;
51560;SDS011;37654;51.262;17.058;2023-12-04T01:20:52;64.35;;;30.90;;
51560;SDS011;37654;51.262;17.058;2023-12-04T01:23:17;83.03;;;34.53;;
51560;SDS011;37654;51.262;17.058;2023-12-04T01:25:42;79.53;;;34.30;;
51560;SDS011;37654;51.262;17.058;2023-12-04T01:28:09;82.93;;;36.42;;
51560;SDS011;37654;51.262;17.058;2023-12-04T01:30:35;72.50;;;32.38;;
51560;SDS011;37654;51.262;17.058;2023-12-04T01:33:00;77.75;;;32.80;;
51560;SDS011;37654;51.262;17.058;2023-12-04T01:35:25;78.60;;;31.85;;
51560;SDS011;37654;51.262;17.058;2023-12-04T01:37:51;75.70;;;34.10;;
51560;SDS011;37654;51.262;17.058;2023-12-04T01:40:16;71.72;;;32.50;;
51560;SDS011;37654;51.262;17.058;2023-12-04T01:42:42;112.22;;;39.00;;
51560;SDS011;37654;51.262;17.058;2023-12-04T01:45:07;87.22;;;34.72;;
51560;SDS011;37654;51.262;17.058;2023-12-04T01:47:33;91.38;;;35.58;;
51560;SDS011;37654;51.262;17.058;2023-12-04T01:49:58;105.18;;;39.78;;
51560;SDS011;37654;51.262;17.058;2023-12-04T01:52:23;94.97;;;37.67;;
51560;SDS011;37654;51.262;17.058;2023-12-04T01:54:49;151.57;;;48.22;;
51560;SDS011;37654;51.262;17.058;2023-12-04T01:57:14;130.68;;;38.78;;
51560;SDS011;37654;51.262;17.058;2023-12-04T01:59:39;164.10;;;41.05;;
51560;SDS011;37654;51.262;17.058;2023-12-04T02:02:05;85.57;;;34.45;;
51560;SDS011;37654;51.262;17.058;2023-12-04T02:04:31;90.72;;;36.60;;
51560;SDS011;37654;51.262;17.058;2023-12-04T02:06:57;97.20;;;39.00;;
51560;SDS011;37654;51.262;17.058;2023-12-04T02:09:23;181.85;;;45.58;;
51560;SDS011;37654;51.262;17.058;2023-12-04T02:11:48;340.70;;;55.85;;
51560;SDS011;37654;51.262;17.058;2023-12-04T02:14:13;99.00;;;38.72;;
51560;SDS011;37654;51.262;17.058;2023-12-04T02:16:39;89.65;;;35.17;;
51560;SDS011;37654;51.262;17.058;2023-12-04T02:19:07;92.22;;;36.13;;
51560;SDS011;37654;51.262;17.058;2023-12-04T02:21:32;91.40;;;36.22;;
51560;SDS011;37654;51.262;17.058;2023-12-04T02:23:57;79.13;;;32.95;;
51560;SDS011;37654;51.262;17.058;2023-12-04T02:26:23;83.55;;;34.88;;
51560;SDS011;37654;51.262;17.058;2023-12-04T02:28:51;75.20;;;32.17;;
51560;SDS011;37654;51.262;17.058;2023-12-04T02:31:19;80.72;;;33.78;;
51560;SDS011;37654;51.262;17.058;2023-12-04T02:33:46;90.03;;;35.13;;
51560;SDS011;37654;51.262;17.058;2023-12-04T02:36:13;70.78;;;31.55;;
51560;SDS011;37654;51.262;17.058;2023-12-04T02:38:38;57.88;;;27.60;;
51560;SDS011;37654;51.262;17.058;2023-12-04T02:41:04;56.38;;;24.35;;
51560;SDS011;37654;51.262;17.058;2023-12-04T02:43:29;58.60;;;27.58;;
51560;SDS011;37654;51.262;17.058;2023-12-04T02:45:55;49.20;;;23.35;;
51560;SDS011;37654;51.262;17.058;2023-12-04T02:48:20;62.38;;;27.60;;
51560;SDS011;37654;51.262;17.058;2023-12-04T02:50:45;49.13;;;22.83;;
51560;SDS011;37654;51.262;17.058;2023-12-04T02:53:10;48.45;;;22.63;;
51560;SDS011;37654;51.262;17.058;2023-12-04T02:55:36;48.85;;;23.88;;
51560;SDS011;37654;51.262;17.058;2023-12-04T02:58:01;47.70;;;23.48;;
51560;SDS011;37654;51.262;17.058;2023-12-04T03:00:26;51.67;;;23.48;;
51560;SDS011;37654;51.262;17.058;2023-12-04T03:02:51;53.33;;;24.08;;
51560;SDS011;37654;51.262;17.058;2023-12-04T03:05:17;43.95;;;21.50;;
51560;SDS011;37654;51.262;17.058;2023-12-04T03:07:44;53.55;;;24.38;;
51560;SDS011;37654;51.262;17.058;2023-12-04T03:10:10;51.95;;;25.42;;
51560;SDS011;37654;51.262;17.058;2023-12-04T03:12:36;74.07;;;28.58;;
51560;SDS011;37654;51.262;17.058;2023-12-04T03:15:01;118.60;;;32.85;;
51560;SDS011;37654;51.262;17.058;2023-12-04T03:17:26;138.30;;;36.50;;
51560;SDS011;37654;51.262;17.058;2023-12-04T03:19:52;98.40;;;31.92;;
51560;SDS011;37654;51.262;17.058;2023-12-04T03:22:17;91.03;;;28.08;;
51560;SDS011;37654;51.262;17.058;2023-12-04T03:24:42;53.33;;;23.05;;
51560;SDS011;37654;51.262;17.058;2023-12-04T03:27:08;50.80;;;20.92;;
51560;SDS011;37654;51.262;17.058;2023-12-04T03:29:33;48.55;;;22.80;;
51560;SDS011;37654;51.262;17.058;2023-12-04T03:31:58;53.85;;;23.55;;
51560;SDS011;37654;51.262;17.058;2023-12-04T03:34:23;54.85;;;25.42;;
51560;SDS011;37654;51.262;17.058;2023-12-04T03:36:48;71.47;;;28.00;;
51560;SDS011;37654;51.262;17.058;2023-12-04T03:39:14;65.95;;;28.60;;
51560;SDS011;37654;51.262;17.058;2023-12-04T03:41:39;60.80;;;27.05;;
51560;SDS011;37654;51.262;17.058;2023-12-04T03:44:04;66.13;;;27.33;;
51560;SDS011;37654;51.262;17.058;2023-12-04T03:46:30;55.47;;;25.35;;
51560;SDS011;37654;51.262;17.058;2023-12-04T03:48:55;67.85;;;30.02;;
51560;SDS011;37654;51.262;17.058;2023-12-04T03:51:20;86.25;;;32.00;;
51560;SDS011;37654;51.262;17.058;2023-12-04T03:53:46;135.90;;;31.40;;
51560;SDS011;37654;51.262;17.058;2023-12-04T03:56:11;132.75;;;31.00;;
51560;SDS011;37654;51.262;17.058;2023-12-04T03:58:37;69.05;;;30.10;;
51560;SDS011;37654;51.262;17.058;2023-12-04T04:01:03;50.28;;;24.80;;
51560;SDS011;37654;51.262;17.058;2023-12-04T04:03:29;53.95;;;26.17;;
51560;SDS011;37654;51.262;17.058;2023-12-04T04:05:54;55.35;;;25.52;;
51560;SDS011;37654;51.262;17.058;2023-12-04T04:08:19;57.42;;;28.13;;
51560;SDS011;37654;51.262;17.058;2023-12-04T04:10:44;57.72;;;26.92;;
51560;SDS011;37654;51.262;17.058;2023-12-04T04:13:10;55.13;;;27.15;;
51560;SDS011;37654;51.262;17.058;2023-12-04T04:15:35;62.70;;;29.60;;
51560;SDS011;37654;51.262;17.058;2023-12-04T04:18:01;55.97;;;26.95;;
51560;SDS011;37654;51.262;17.058;2023-12-04T04:20:26;55.65;;;26.08;;
51560;SDS011;37654;51.262;17.058;2023-12-04T04:22:51;57.63;;;26.55;;
51560;SDS011;37654;51.262;17.058;2023-12-04T04:25:17;49.60;;;24.63;;
51560;SDS011;37654;51.262;17.058;2023-12-04T04:27:43;47.72;;;22.65;;
51560;SDS011;37654;51.262;17.058;2023-12-04T04:30:09;48.13;;;20.90;;
51560;SDS011;37654;51.262;17.058;2023-12-04T04:32:34;42.83;;;21.00;;
51560;SDS011;37654;51.262;17.058;2023-12-04T04:34:59;39.55;;;17.70;;
51560;SDS011;37654;51.262;17.058;2023-12-04T04:37:24;34.83;;;16.77;;
51560;SDS011;37654;51.262;17.058;2023-12-04T04:39:50;38.53;;;18.85;;
51560;SDS011;37654;51.262;17.058;2023-12-04T04:42:15;41.47;;;20.50;;
51560;SDS011;37654;51.262;17.058;2023-12-04T04:44:40;42.38;;;20.05;;
51560;SDS011;37654;51.262;17.058;2023-12-04T04:47:06;39.22;;;20.13;;
51560;SDS011;37654;51.262;17.058;2023-12-04T04:49:31;42.80;;;21.23;;
51560;SDS011;37654;51.262;17.058;2023-12-04T04:51:56;42.33;;;21.25;;
51560;SDS011;37654;51.262;17.058;2023-12-04T04:54:21;49.70;;;24.23;;
51560;SDS011;37654;51.262;17.058;2023-12-04T04:56:47;47.15;;;23.00;;
51560;SDS011;37654;51.262;17.058;2023-12-04T04:59:12;49.63;;;22.38;;
51560;SDS011;37654;51.262;17.058;2023-12-04T05:01:37;49.08;;;22.58;;
51560;SDS011;37654;51.262;17.058;2023-12-04T05:04:02;49.67;;;24.90;;
51560;SDS011;37654;51.262;17.058;2023-12-04T05:06:28;50.03;;;24.45;;
51560;SDS011;37654;51.262;17.058;2023-12-04T05:08:53;57.28;;;26.42;;
51560;SDS011;37654;51.262;17.058;2023-12-04T05:11:19;58.13;;;26.52;;
51560;SDS011;37654;51.262;17.058;2023-12-04T05:13:44;54.92;;;26.80;;
51560;SDS011;37654;51.262;17.058;2023-12-04T05:16:09;52.58;;;26.85;;
51560;SDS011;37654;51.262;17.058;2023-12-04T05:18:35;54.70;;;25.67;;
51560;SDS011;37654;51.262;17.058;2023-12-04T05:21:00;52.63;;;26.45;;
51560;SDS011;37654;51.262;17.058;2023-12-04T05:23:25;53.72;;;25.95;;
51560;SDS011;37654;51.262;17.058;2023-12-04T05:25:51;56.50;;;28.73;;
51560;SDS011;37654;51.262;17.058;2023-12-04T05:28:16;61.40;;;29.40;;
51560;SDS011;37654;51.262;17.058;2023-12-04T05:30:42;56.53;;;26.83;;
51560;SDS011;37654;51.262;17.058;2023-12-04T05:33:08;59.10;;;27.42;;
51560;SDS011;37654;51.262;17.058;2023-12-04T05:35:33;55.72;;;27.27;;
51560;SDS011;37654;51.262;17.058;2023-12-04T05:38:00;55.17;;;27.02;;
51560;SDS011;37654;51.262;17.058;2023-12-04T05:40:25;62.03;;;27.10;;
51560;SDS011;37654;51.262;17.058;2023-12-04T05:42:50;55.88;;;26.60;;
51560;SDS011;37654;51.262;17.058;2023-12-04T05:45:15;53.63;;;26.95;;
51560;SDS011;37654;51.262;17.058;2023-12-04T05:47:41;48.65;;;24.90;;
51560;SDS011;37654;51.262;17.058;2023-12-04T05:50:06;49.88;;;23.48;;
51560;SDS011;37654;51.262;17.058;2023-12-04T05:52:32;59.72;;;26.27;;
51560;SDS011;37654;51.262;17.058;2023-12-04T05:54:57;49.63;;;24.67;;
51560;SDS011;37654;51.262;17.058;2023-12-04T05:57:22;60.83;;;27.08;;
51560;SDS011;37654;51.262;17.058;2023-12-04T05:59:48;56.33;;;27.75;;
51560;SDS011;37654;51.262;17.058;2023-12-04T06:02:13;69.18;;;30.88;;
51560;SDS011;37654;51.262;17.058;2023-12-04T06:04:40;61.72;;;28.13;;
51560;SDS011;37654;51.262;17.058;2023-12-04T06:07:05;66.82;;;29.58;;
51560;SDS011;37654;51.262;17.058;2023-12-04T06:09:31;64.45;;;30.05;;
51560;SDS011;37654;51.262;17.058;2023-12-04T06:11:57;84.68;;;32.15;;
51560;SDS011;37654;51.262;17.058;2023-12-04T06:14:22;60.65;;;30.30;;
51560;SDS011;37654;51.262;17.058;2023-12-04T06:16:47;67.88;;;31.45;;
51560;SDS011;37654;51.262;17.058;2023-12-04T06:19:12;69.45;;;33.10;;
51560;SDS011;37654;51.262;17.058;2023-12-04T06:21:38;68.15;;;29.48;;
51560;SDS011;37654;51.262;17.058;2023-12-04T06:24:04;62.67;;;29.27;;
51560;SDS011;37654;51.262;17.058;2023-12-04T06:26:31;55.88;;;28.05;;
51560;SDS011;37654;51.262;17.058;2023-12-04T06:28:56;62.47;;;28.55;;
51560;SDS011;37654;51.262;17.058;2023-12-04T06:31:22;57.00;;;28.25;;
51560;SDS011;37654;51.262;17.058;2023-12-04T06:33:47;57.38;;;26.60;;
51560;SDS011;37654;51.262;17.058;2023-12-04T06:36:12;59.90;;;27.80;;
51560;SDS011;37654;51.262;17.058;2023-12-04T06:38:39;57.53;;;25.70;;
51560;SDS011;37654;51.262;17.058;2023-12-04T06:41:05;61.38;;;28.08;;
51560;SDS011;37654;51.262;17.058;2023-12-04T06:43:30;57.45;;;28.45;;
51560;SDS011;37654;51.262;17.058;2023-12-04T06:45:56;59.25;;;27.30;;
51560;SDS011;37654;51.262;17.058;2023-12-04T06:48:24;66.82;;;28.35;;
51560;SDS011;37654;51.262;17.058;2023-12-04T06:50:49;59.72;;;30.48;;
51560;SDS011;37654;51.262;17.058;2023-12-04T06:53:14;62.53;;;28.75;;
51560;SDS011;37654;51.262;17.058;2023-12-04T06:55:39;62.05;;;28.40;;
51560;SDS011;37654;51.262;17.058;2023-12-04T06:58:05;64.88;;;30.45;;
51560;SDS011;37654;51.262;17.058;2023-12-04T07:00:30;58.67;;;27.90;;
51560;SDS011;37654;51.262;17.058;2023-12-04T07:02:56;59.72;;;28.52;;
51560;SDS011;37654;51.262;17.058;2023-12-04T07:05:21;51.78;;;26.77;;
51560;SDS011;37654;51.262;17.058;2023-12-04T07:07:46;58.10;;;29.25;;
51560;SDS011;37654;51.262;17.058;2023-12-04T07:10:12;49.83;;;25.35;;
51560;SDS011;37654;51.262;17.058;2023-12-04T07:12:40;62.08;;;30.48;;
51560;SDS011;37654;51.262;17.058;2023-12-04T07:15:05;63.80;;;30.00;;
51560;SDS011;37654;51.262;17.058;2023-12-04T07:17:30;60.00;;;28.10;;
51560;SDS011;37654;51.262;17.058;2023-12-04T07:19:56;64.28;;;30.05;;
51560;SDS011;37654;51.262;17.058;2023-12-04T07:22:21;53.60;;;25.40;;
51560;SDS011;37654;51.262;17.058;2023-12-04T07:24:46;61.47;;;29.95;;
51560;SDS011;37654;51.262;17.058;2023-12-04T07:27:11;62.40;;;28.92;;
51560;SDS011;37654;51.262;17.058;2023-12-04T07:29:37;61.80;;;29.65;;
51560;SDS011;37654;51.262;17.058;2023-12-04T07:32:03;57.97;;;27.75;;
51560;SDS011;37654;51.262;17.058;2023-12-04T07:34:28;63.83;;;29.33;;
51560;SDS011;37654;51.262;17.058;2023-12-04T07:36:54;65.82;;;30.85;;
51560;SDS011;37654;51.262;17.058;2023-12-04T07:39:19;57.50;;;29.45;;
51560;SDS011;37654;51.262;17.058;2023-12-04T07:41:45;76.38;;;32.13;;
51560;SDS011;37654;51.262;17.058;2023-12-04T07:44:11;66.53;;;32.00;;
51560;SDS011;37654;51.262;17.058;2023-12-04T07:46:36;63.70;;;31.73;;
51560;SDS011;37654;51.262;17.058;2023-12-04T07:49:01;64.78;;;30.42;;
51560;SDS011;37654;51.262;17.058;2023-12-04T07:51:27;72.07;;;33.78;;
51560;SDS011;37654;51.262;17.058;2023-12-04T07:53:52;71.32;;;31.92;;
51560;SDS011;37654;51.262;17.058;2023-12-04T07:56:17;74.90;;;33.60;;
51560;SDS011;37654;51.262;17.058;2023-12-04T07:58:43;61.35;;;33.00;;
51560;SDS011;37654;51.262;17.058;2023-12-04T08:01:08;76.32;;;35.17;;
51560;SDS011;37654;51.262;17.058;2023-12-04T08:03:33;69.50;;;31.08;;
51560;SDS011;37654;51.262;17.058;2023-12-04T08:05:58;64.50;;;31.40;;
51560;SDS011;37654;51.262;17.058;2023-12-04T08:08:24;69.43;;;31.77;;
51560;SDS011;37654;51.262;17.058;2023-12-04T08:10:49;69.45;;;34.15;;
51560;SDS011;37654;51.262;17.058;2023-12-04T08:13:15;68.18;;;33.17;;
51560;SDS011;37654;51.262;17.058;2023-12-04T08:15:41;69.20;;;33.40;;
51560;SDS011;37654;51.262;17.058;2023-12-04T08:18:06;70.75;;;33.05;;
51560;SDS011;37654;51.262;17.058;2023-12-04T08:20:31;70.70;;;34.47;;
51560;SDS011;37654;51.262;17.058;2023-12-04T08:22:58;70.15;;;33.75;;
51560;SDS011;37654;51.262;17.058;2023-12-04T08:25:23;69.40;;;34.22;;
51560;SDS011;37654;51.262;17.058;2023-12-04T08:27:48;77.53;;;36.13;;
51560;SDS011;37654;51.262;17.058;2023-12-04T08:30:14;71.65;;;35.30;;
51560;SDS011;37654;51.262;17.058;2023-12-04T08:32:40;69.80;;;34.50;;
51560;SDS011;37654;51.262;17.058;2023-12-04T08:35:05;72.68;;;33.25;;
51560;SDS011;37654;51.262;17.058;2023-12-04T08:37:31;70.05;;;33.25;;
51560;SDS011;37654;51.262;17.058;2023-12-04T08:39:56;74.85;;;34.75;;
51560;SDS011;37654;51.262;17.058;2023-12-04T08:42:21;73.30;;;34.17;;
51560;SDS011;37654;51.262;17.058;2023-12-04T08:44:47;75.65;;;36.08;;
51560;SDS011;37654;51.262;17.058;2023-12-04T08:47:12;75.97;;;36.70;;
51560;SDS011;37654;51.262;17.058;2023-12-04T08:49:38;73.10;;;35.40;;
51560;SDS011;37654;51.262;17.058;2023-12-04T08:52:05;76.68;;;35.42;;
51560;SDS011;37654;51.262;17.058;2023-12-04T08:54:31;83.15;;;36.85;;
51560;SDS011;37654;51.262;17.058;2023-12-04T08:56:56;71.75;;;34.45;;
51560;SDS011;37654;51.262;17.058;2023-12-04T08:59:21;77.13;;;38.33;;
51560;SDS011;37654;51.262;17.058;2023-12-04T09:01:46;83.00;;;38.58;;
51560;SDS011;37654;51.262;17.058;2023-12-04T09:04:12;80.20;;;39.22;;
51560;SDS011;37654;51.262;17.058;2023-12-04T09:06:37;80.60;;;39.25;;
51560;SDS011;37654;51.262;17.058;2023-12-04T09:09:03;79.00;;;36.00;;
51560;SDS011;37654;51.262;17.058;2023-12-04T09:11:29;79.53;;;38.05;;
51560;SDS011;37654;51.262;17.058;2023-12-04T09:13:54;84.25;;;39.65;;
51560;SDS011;37654;51.262;17.058;2023-12-04T09:16:19;76.30;;;39.05;;
51560;SDS011;37654;51.262;17.058;2023-12-04T09:18:45;81.13;;;40.47;;
51560;SDS011;37654;51.262;17.058;2023-12-04T09:21:11;84.22;;;40.42;;
51560;SDS011;37654;51.262;17.058;2023-12-04T09:23:36;87.47;;;41.75;;
51560;SDS011;37654;51.262;17.058;2023-12-04T09:26:01;84.13;;;41.17;;
51560;SDS011;37654;51.262;17.058;2023-12-04T09:28:27;86.20;;;40.97;;
51560;SDS011;37654;51.262;17.058;2023-12-04T09:30:52;79.97;;;41.47;;
51560;SDS011;37654;51.262;17.058;2023-12-04T09:33:18;92.65;;;42.92;;
51560;SDS011;37654;51.262;17.058;2023-12-04T09:35:43;88.10;;;40.72;;
51560;SDS011;37654;51.262;17.058;2023-12-04T09:38:09;85.80;;;42.10;;
51560;SDS011;37654;51.262;17.058;2023-12-04T09:40:37;85.65;;;41.15;;
51560;SDS011;37654;51.262;17.058;2023-12-04T09:43:02;79.78;;;38.92;;
51560;SDS011;37654;51.262;17.058;2023-12-04T09:45:28;87.20;;;40.28;;
51560;SDS011;37654;51.262;17.058;2023-12-04T09:47:54;78.10;;;37.08;;
51560;SDS011;37654;51.262;17.058;2023-12-04T09:50:20;86.75;;;41.78;;
51560;SDS011;37654;51.262;17.058;2023-12-04T09:52:50;82.18;;;38.65;;
51560;SDS011;37654;51.262;17.058;2023-12-04T09:55:16;85.28;;;39.55;;
51560;SDS011;37654;51.262;17.058;2023-12-04T09:57:41;86.60;;;38.95;;
51560;SDS011;37654;51.262;17.058;2023-12-04T10:00:07;77.00;;;37.42;;
51560;SDS011;37654;51.262;17.058;2023-12-04T10:02:34;81.10;;;38.97;;
51560;SDS011;37654;51.262;17.058;2023-12-04T10:05:01;75.43;;;34.95;;
51560;SDS011;37654;51.262;17.058;2023-12-04T10:07:30;74.05;;;37.83;;
51560;SDS011;37654;51.262;17.058;2023-12-04T10:09:55;77.45;;;38.13;;
51560;SDS011;37654;51.262;17.058;2023-12-04T10:12:20;77.13;;;37.20;;
51560;SDS011;37654;51.262;17.058;2023-12-04T10:17:27;74.50;;;36.58;;
51560;SDS011;37654;51.262;17.058;2023-12-04T10:20:04;68.05;;;28.70;;
51560;SDS011;37654;51.262;17.058;2023-12-04T10:22:35;67.72;;;28.58;;
51560;SDS011;37654;51.262;17.058;2023-12-04T10:25:07;75.85;;;29.95;;
51560;SDS011;37654;51.262;17.058;2023-12-04T10:27:38;68.60;;;28.98;;
51560;SDS011;37654;51.262;17.058;2023-12-04T10:30:03;67.78;;;29.65;;
51560;SDS011;37654;51.262;17.058;2023-12-04T10:32:33;61.58;;;27.73;;
51560;SDS011;37654;51.262;17.058;2023-12-04T10:35:01;68.38;;;29.38;;
51560;SDS011;37654;51.262;17.058;2023-12-04T10:37:28;57.40;;;28.50;;
51560;SDS011;37654;51.262;17.058;2023-12-04T10:39:54;65.05;;;29.30;;
51560;SDS011;37654;51.262;17.058;2023-12-04T10:42:23;60.53;;;27.02;;
51560;SDS011;37654;51.262;17.058;2023-12-04T10:44:48;69.68;;;29.05;;
51560;SDS011;37654;51.262;17.058;2023-12-04T10:47:13;80.30;;;28.92;;
51560;SDS011;37654;51.262;17.058;2023-12-04T10:49:40;58.40;;;25.38;;
51560;SDS011;37654;51.262;17.058;2023-12-04T10:52:06;61.80;;;27.15;;
51560;SDS011;37654;51.262;17.058;2023-12-04T10:54:34;57.78;;;26.02;;
51560;SDS011;37654;51.262;17.058;2023-12-04T10:57:01;60.80;;;27.02;;
51560;SDS011;37654;51.262;17.058;2023-12-04T10:59:28;65.65;;;27.55;;
51560;SDS011;37654;51.262;17.058;2023-12-04T11:01:57;66.03;;;27.23;;
51560;SDS011;37654;51.262;17.058;2023-12-04T11:04:25;60.35;;;28.08;;
51560;SDS011;37654;51.262;17.058;2023-12-04T11:06:52;74.22;;;31.10;;
51560;SDS011;37654;51.262;17.058;2023-12-04T11:09:18;73.35;;;30.85;;
51560;SDS011;37654;51.262;17.058;2023-12-04T11:11:46;65.03;;;30.00;;
51560;SDS011;37654;51.262;17.058;2023-12-04T11:14:13;65.13;;;28.85;;
51560;SDS011;37654;51.262;17.058;2023-12-04T11:16:47;61.75;;;29.13;;
51560;SDS011;37654;51.262;17.058;2023-12-04T11:19:14;64.90;;;30.13;;
51560;SDS011;37654;51.262;17.058;2023-12-04T11:21:42;63.55;;;28.48;;
51560;SDS011;37654;51.262;17.058;2023-12-04T11:24:08;64.53;;;29.25;;
51560;SDS011;37654;51.262;17.058;2023-12-04T11:26:34;65.80;;;27.92;;
51560;SDS011;37654;51.262;17.058;2023-12-04T11:29:01;58.53;;;28.38;;
51560;SDS011;37654;51.262;17.058;2023-12-04T11:31:26;57.38;;;28.27;;
51560;SDS011;37654;51.262;17.058;2023-12-04T11:33:52;61.35;;;29.17;;
51560;SDS011;37654;51.262;17.058;2023-12-04T11:36:17;64.22;;;29.27;;
51560;SDS011;37654;51.262;17.058;2023-12-04T11:38:46;63.75;;;30.63;;
51560;SDS011;37654;51.262;17.058;2023-12-04T11:41:15;65.88;;;29.13;;
51560;SDS011;37654;51.262;17.058;2023-12-04T11:43:42;65.85;;;28.55;;
51560;SDS011;37654;51.262;17.058;2023-12-04T11:46:08;56.95;;;27.25;;
51560;SDS011;37654;51.262;17.058;2023-12-04T11:48:36;65.70;;;29.20;;
51560;SDS011;37654;51.262;17.058;2023-12-04T11:51:01;64.20;;;29.60;;
51560;SDS011;37654;51.262;17.058;2023-12-04T11:53:26;64.30;;;29.20;;
51560;SDS011;37654;51.262;17.058;2023-12-04T11:55:53;63.53;;;30.70;;
51560;SDS011;37654;51.262;17.058;2023-12-04T11:58:20;60.45;;;27.92;;
51560;SDS011;37654;51.262;17.058;2023-12-04T12:00:46;64.57;;;28.98;;
51560;SDS011;37654;51.262;17.058;2023-12-04T12:03:13;61.05;;;28.77;;
51560;SDS011;37654;51.262;17.058;2023-12-04T12:05:39;62.47;;;29.60;;
51560;SDS011;37654;51.262;17.058;2023-12-04T12:08:06;62.85;;;27.40;;
51560;SDS011;37654;51.262;17.058;2023-12-04T12:10:32;59.30;;;27.52;;
51560;SDS011;37654;51.262;17.058;2023-12-04T12:12:58;61.97;;;29.50;;
51560;SDS011;37654;51.262;17.058;2023-12-04T12:15:23;62.15;;;27.98;;
51560;SDS011;37654;51.262;17.058;2023-12-04T12:17:49;62.20;;;28.88;;
51560;SDS011;37654;51.262;17.058;2023-12-04T12:20:14;62.72;;;29.00;;
51560;SDS011;37654;51.262;17.058;2023-12-04T12:22:40;62.80;;;28.40;;
51560;SDS011;37654;51.262;17.058;2023-12-04T12:25:07;71.25;;;30.05;;
51560;SDS011;37654;51.262;17.058;2023-12-04T12:27:32;72.05;;;29.10;;
51560;SDS011;37654;51.262;17.058;2023-12-04T12:29:57;67.68;;;28.85;;
51560;SDS011;37654;51.262;17.058;2023-12-04T12:32:23;65.28;;;28.77;;
51560;SDS011;37654;51.262;17.058;2023-12-04T12:34:48;59.45;;;28.67;;
51560;SDS011;37654;51.262;17.058;2023-12-04T12:37:14;70.20;;;29.73;;
51560;SDS011;37654;51.262;17.058;2023-12-04T12:39:39;69.80;;;31.08;;
51560;SDS011;37654;51.262;17.058;2023-12-04T12:42:05;61.20;;;28.30;;
51560;SDS011;37654;51.262;17.058;2023-12-04T12:44:40;68.07;;;30.48;;
51560;SDS011;37654;51.262;17.058;2023-12-04T12:47:06;76.60;;;31.97;;
51560;SDS011;37654;51.262;17.058;2023-12-04T12:49:32;65.60;;;28.50;;
51560;SDS011;37654;51.262;17.058;2023-12-04T12:51:59;65.43;;;29.25;;
51560;SDS011;37654;51.262;17.058;2023-12-04T12:54:25;69.63;;;29.83;;
51560;SDS011;37654;51.262;17.058;2023-12-04T12:56:50;68.05;;;31.05;;
51560;SDS011;37654;51.262;17.058;2023-12-04T12:59:15;67.55;;;31.83;;
51560;SDS011;37654;51.262;17.058;2023-12-04T13:01:40;65.35;;;28.70;;
51560;SDS011;37654;51.262;17.058;2023-12-04T13:04:06;67.50;;;29.08;;
51560;SDS011;37654;51.262;17.058;2023-12-04T13:06:31;68.97;;;31.25;;
51560;SDS011;37654;51.262;17.058;2023-12-04T13:08:57;73.75;;;31.55;;
51560;SDS011;37654;51.262;17.058;2023-12-04T13:11:22;71.63;;;33.10;;
51560;SDS011;37654;51.262;17.058;2023-12-04T13:13:47;73.00;;;38.00;;
51560;SDS011;37654;51.262;17.058;2023-12-04T13:16:12;72.75;;;37.35;;
51560;SDS011;37654;51.262;17.058;2023-12-04T13:18:38;77.95;;;36.17;;
51560;SDS011;37654;51.262;17.058;2023-12-04T13:21:04;71.97;;;34.92;;
51560;SDS011;37654;51.262;17.058;2023-12-04T13:23:29;83.18;;;41.25;;
51560;SDS011;37654;51.262;17.058;2023-12-04T13:25:54;75.70;;;40.75;;
51560;SDS011;37654;51.262;17.058;2023-12-04T13:28:20;78.90;;;41.75;;
51560;SDS011;37654;51.262;17.058;2023-12-04T13:30:45;76.88;;;39.88;;
51560;SDS011;37654;51.262;17.058;2023-12-04T13:33:10;78.95;;;39.60;;
51560;SDS011;37654;51.262;17.058;2023-12-04T13:35:36;76.30;;;37.08;;
51560;SDS011;37654;51.262;17.058;2023-12-04T13:38:01;81.00;;;43.55;;
51560;SDS011;37654;51.262;17.058;2023-12-04T13:40:27;79.78;;;44.50;;
51560;SDS011;37654;51.262;17.058;2023-12-04T13:42:57;86.90;;;45.05;;
51560;SDS011;37654;51.262;17.058;2023-12-04T13:45:36;84.75;;;42.40;;
51560;SDS011;37654;51.262;17.058;2023-12-04T13:48:01;95.93;;;49.38;;
51560;SDS011;37654;51.262;17.058;2023-12-04T13:50:26;91.75;;;46.92;;
51560;SDS011;37654;51.262;17.058;2023-12-04T13:52:52;97.45;;;50.95;;
51560;SDS011;37654;51.262;17.058;2023-12-04T13:55:21;95.70;;;47.35;;
51560;SDS011;37654;51.262;17.058;2023-12-04T13:57:59;103.05;;;51.80;;
51560;SDS011;37654;51.262;17.058;2023-12-04T14:00:24;105.20;;;50.30;;
51560;SDS011;37654;51.262;17.058;2023-12-04T14:02:50;99.03;;;52.40;;